sensor_id;sensor_type;location;lat;lon;timestamp;temperature;humidity
5802;DHT22;2927;49.366;8.530;2023-03-23T00:01:25;14.40;1.00
5802;DHT22;2927;49.366;8.530;2023-03-23T00:03:53;14.40;1.00
5802;DHT22;2927;49.366;8.530;2023-03-23T00:06:23;14.40;1.00
5802;DHT22;2927;49.366;8.530;2023-03-23T00:08:50;14.40;1.00
5802;DHT22;2927;49.366;8.530;2023-03-23T00:11:23;14.30;1.00
5802;DHT22;2927;49.366;8.530;2023-03-23T00:13:51;14.30;1.00
5802;DHT22;2927;49.366;8.530;2023-03-23T00:16:19;14.20;1.00
5802;DHT22;2927;49.366;8.530;2023-03-23T00:18:49;14.20;1.00
5802;DHT22;2927;49.366;8.530;2023-03-23T00:21:18;14.10;1.00
5802;DHT22;2927;49.366;8.530;2023-03-23T00:23:44;14.10;1.00
5802;DHT22;2927;49.366;8.530;2023-03-23T00:26:10;14.00;1.00
5802;DHT22;2927;49.366;8.530;2023-03-23T00:28:36;14.10;1.00
5802;DHT22;2927;49.366;8.530;2023-03-23T00:31:06;14.00;1.00
5802;DHT22;2927;49.366;8.530;2023-03-23T00:33:34;14.00;1.00
5802;DHT22;2927;49.366;8.530;2023-03-23T00:36:04;14.00;1.00
5802;DHT22;2927;49.366;8.530;2023-03-23T00:38:31;14.00;9.70
5802;DHT22;2927;49.366;8.530;2023-03-23T00:40:57;14.00;37.40
5802;DHT22;2927;49.366;8.530;2023-03-23T00:43:23;13.90;73.50
5802;DHT22;2927;49.366;8.530;2023-03-23T00:45:50;13.90;57.80
5802;DHT22;2927;49.366;8.530;2023-03-23T00:48:22;13.90;52.70
5802;DHT22;2927;49.366;8.530;2023-03-23T00:50:48;13.90;46.90
5802;DHT22;2927;49.366;8.530;2023-03-23T00:53:15;13.80;99.90
5802;DHT22;2927;49.366;8.530;2023-03-23T00:55:42;13.90;99.90
5802;DHT22;2927;49.366;8.530;2023-03-23T00:58:08;13.90;99.90
5802;DHT22;2927;49.366;8.530;2023-03-23T01:00:34;13.90;99.90
5802;DHT22;2927;49.366;8.530;2023-03-23T01:03:00;13.90;99.90
5802;DHT22;2927;49.366;8.530;2023-03-23T01:05:25;13.90;99.90
5802;DHT22;2927;49.366;8.530;2023-03-23T01:07:59;13.90;99.90
5802;DHT22;2927;49.366;8.530;2023-03-23T01:10:25;13.90;99.90
5802;DHT22;2927;49.366;8.530;2023-03-23T01:12:54;13.80;99.90
5802;DHT22;2927;49.366;8.530;2023-03-23T01:15:20;13.80;99.90
5802;DHT22;2927;49.366;8.530;2023-03-23T01:17:46;13.80;99.90
5802;DHT22;2927;49.366;8.530;2023-03-23T01:20:14;13.70;99.90
5802;DHT22;2927;49.366;8.530;2023-03-23T01:22:41;13.70;99.90
5802;DHT22;2927;49.366;8.530;2023-03-23T01:25:07;13.60;99.90
5802;DHT22;2927;49.366;8.530;2023-03-23T01:27:33;13.50;99.90
5802;DHT22;2927;49.366;8.530;2023-03-23T01:29:59;13.60;99.90
5802;DHT22;2927;49.366;8.530;2023-03-23T01:32:24;13.50;99.90
5802;DHT22;2927;49.366;8.530;2023-03-23T01:34:50;13.50;99.90
5802;DHT22;2927;49.366;8.530;2023-03-23T01:37:15;13.60;99.90
5802;DHT22;2927;49.366;8.530;2023-03-23T01:39:42;13.60;99.90
5802;DHT22;2927;49.366;8.530;2023-03-23T01:42:08;13.60;99.90
5802;DHT22;2927;49.366;8.530;2023-03-23T01:47:00;13.50;99.90
5802;DHT22;2927;49.366;8.530;2023-03-23T01:49:35;13.40;99.90
5802;DHT22;2927;49.366;8.530;2023-03-23T01:52:05;13.30;99.90
5802;DHT22;2927;49.366;8.530;2023-03-23T01:54:33;13.30;1.00
5802;DHT22;2927;49.366;8.530;2023-03-23T01:57:10;13.30;1.00
5802;DHT22;2927;49.366;8.530;2023-03-23T01:59:36;13.30;1.00
5802;DHT22;2927;49.366;8.530;2023-03-23T02:02:02;13.30;1.00
5802;DHT22;2927;49.366;8.530;2023-03-23T02:04:30;13.30;1.00
5802;DHT22;2927;49.366;8.530;2023-03-23T02:06:57;13.30;1.00
5802;DHT22;2927;49.366;8.530;2023-03-23T02:09:24;13.30;1.00
5802;DHT22;2927;49.366;8.530;2023-03-23T02:11:51;13.30;1.00
5802;DHT22;2927;49.366;8.530;2023-03-23T02:14:18;13.30;1.00
5802;DHT22;2927;49.366;8.530;2023-03-23T02:19:48;13.20;1.00
5802;DHT22;2927;49.366;8.530;2023-03-23T02:22:58;13.20;1.00
5802;DHT22;2927;49.366;8.530;2023-03-23T02:25:58;13.10;1.00
5802;DHT22;2927;49.366;8.530;2023-03-23T02:33:53;13.10;1.00
5802;DHT22;2927;49.366;8.530;2023-03-23T02:36:32;13.10;1.00
5802;DHT22;2927;49.366;8.530;2023-03-23T02:39:06;13.10;1.00
5802;DHT22;2927;49.366;8.530;2023-03-23T02:41:39;13.00;1.00
5802;DHT22;2927;49.366;8.530;2023-03-23T02:44:07;13.00;30.20
5802;DHT22;2927;49.366;8.530;2023-03-23T02:46:34;13.00;1.00
5802;DHT22;2927;49.366;8.530;2023-03-23T02:49:02;13.00;42.90
5802;DHT22;2927;49.366;8.530;2023-03-23T02:51:29;13.00;1.00
5802;DHT22;2927;49.366;8.530;2023-03-23T02:53:56;13.00;1.00
5802;DHT22;2927;49.366;8.530;2023-03-23T02:56:25;13.00;1.00
5802;DHT22;2927;49.366;8.530;2023-03-23T02:58:53;13.00;1.00
5802;DHT22;2927;49.366;8.530;2023-03-23T03:03:52;13.00;1.00
5802;DHT22;2927;49.366;8.530;2023-03-23T03:06:25;13.00;1.00
5802;DHT22;2927;49.366;8.530;2023-03-23T03:09:07;13.10;1.00
5802;DHT22;2927;49.366;8.530;2023-03-23T03:11:36;13.10;1.00
5802;DHT22;2927;49.366;8.530;2023-03-23T03:14:10;13.10;1.00
5802;DHT22;2927;49.366;8.530;2023-03-23T03:16:43;13.10;1.00
5802;DHT22;2927;49.366;8.530;2023-03-23T03:19:31;13.10;1.00
5802;DHT22;2927;49.366;8.530;2023-03-23T03:21:58;13.10;1.00
5802;DHT22;2927;49.366;8.530;2023-03-23T03:24:27;13.00;1.00
5802;DHT22;2927;49.366;8.530;2023-03-23T03:26:54;13.10;1.00
5802;DHT22;2927;49.366;8.530;2023-03-23T03:29:26;13.10;1.00
5802;DHT22;2927;49.366;8.530;2023-03-23T03:31:55;13.10;1.00
5802;DHT22;2927;49.366;8.530;2023-03-23T03:34:21;13.10;1.00
5802;DHT22;2927;49.366;8.530;2023-03-23T03:36:49;13.10;29.60
5802;DHT22;2927;49.366;8.530;2023-03-23T03:39:17;13.00;99.90
5802;DHT22;2927;49.366;8.530;2023-03-23T03:41:45;13.00;99.90
5802;DHT22;2927;49.366;8.530;2023-03-23T03:44:11;13.00;99.90
5802;DHT22;2927;49.366;8.530;2023-03-23T03:46:37;13.00;99.90
5802;DHT22;2927;49.366;8.530;2023-03-23T03:49:06;13.00;99.90
5802;DHT22;2927;49.366;8.530;2023-03-23T03:51:33;13.00;99.90
5802;DHT22;2927;49.366;8.530;2023-03-23T03:53:58;13.10;99.90
5802;DHT22;2927;49.366;8.530;2023-03-23T03:56:24;13.10;99.90
5802;DHT22;2927;49.366;8.530;2023-03-23T03:58:51;13.10;99.90
5802;DHT22;2927;49.366;8.530;2023-03-23T04:01:18;13.10;99.90
5802;DHT22;2927;49.366;8.530;2023-03-23T04:03:44;13.20;99.90
5802;DHT22;2927;49.366;8.530;2023-03-23T04:06:10;13.20;99.90
5802;DHT22;2927;49.366;8.530;2023-03-23T04:08:38;13.20;99.90
5802;DHT22;2927;49.366;8.530;2023-03-23T04:11:07;13.30;99.90
5802;DHT22;2927;49.366;8.530;2023-03-23T04:13:33;13.30;1.00
5802;DHT22;2927;49.366;8.530;2023-03-23T04:15:58;13.30;1.00
5802;DHT22;2927;49.366;8.530;2023-03-23T04:18:26;13.40;1.00
5802;DHT22;2927;49.366;8.530;2023-03-23T04:20:51;13.40;1.00
5802;DHT22;2927;49.366;8.530;2023-03-23T04:23:18;13.40;1.00
5802;DHT22;2927;49.366;8.530;2023-03-23T04:25:52;13.40;1.00
5802;DHT22;2927;49.366;8.530;2023-03-23T04:28:19;13.50;60.00
5802;DHT22;2927;49.366;8.530;2023-03-23T04:30:48;13.40;20.00
5802;DHT22;2927;49.366;8.530;2023-03-23T04:33:19;13.50;1.00
5802;DHT22;2927;49.366;8.530;2023-03-23T04:35:45;13.50;1.00
5802;DHT22;2927;49.366;8.530;2023-03-23T04:38:14;13.50;1.00
5802;DHT22;2927;49.366;8.530;2023-03-23T04:40:42;13.60;1.00
5802;DHT22;2927;49.366;8.530;2023-03-23T04:43:08;13.60;1.00
5802;DHT22;2927;49.366;8.530;2023-03-23T04:45:35;13.60;1.00
5802;DHT22;2927;49.366;8.530;2023-03-23T04:48:03;13.60;1.00
5802;DHT22;2927;49.366;8.530;2023-03-23T04:50:31;13.70;1.00
5802;DHT22;2927;49.366;8.530;2023-03-23T04:52:59;13.70;99.90
5802;DHT22;2927;49.366;8.530;2023-03-23T04:55:30;13.60;1.00
5802;DHT22;2927;49.366;8.530;2023-03-23T04:57:57;13.50;1.00
5802;DHT22;2927;49.366;8.530;2023-03-23T05:00:26;13.40;1.00
5802;DHT22;2927;49.366;8.530;2023-03-23T05:02:52;13.30;90.10
5802;DHT22;2927;49.366;8.530;2023-03-23T05:05:21;13.30;45.70
5802;DHT22;2927;49.366;8.530;2023-03-23T05:07:47;13.30;1.00
5802;DHT22;2927;49.366;8.530;2023-03-23T05:10:13;13.30;1.00
5802;DHT22;2927;49.366;8.530;2023-03-23T05:12:39;13.40;1.00
5802;DHT22;2927;49.366;8.530;2023-03-23T05:15:06;13.40;1.00
5802;DHT22;2927;49.366;8.530;2023-03-23T05:17:32;13.50;1.00
5802;DHT22;2927;49.366;8.530;2023-03-23T05:19:59;13.50;1.00
5802;DHT22;2927;49.366;8.530;2023-03-23T05:22:27;13.50;99.90
5802;DHT22;2927;49.366;8.530;2023-03-23T05:24:53;13.50;99.90
5802;DHT22;2927;49.366;8.530;2023-03-23T05:27:19;13.40;1.00
5802;DHT22;2927;49.366;8.530;2023-03-23T05:29:45;13.40;1.00
5802;DHT22;2927;49.366;8.530;2023-03-23T05:32:15;13.40;1.00
5802;DHT22;2927;49.366;8.530;2023-03-23T05:34:42;13.40;76.40
5802;DHT22;2927;49.366;8.530;2023-03-23T05:37:09;13.40;1.00
5802;DHT22;2927;49.366;8.530;2023-03-23T05:39:35;13.40;99.90
5802;DHT22;2927;49.366;8.530;2023-03-23T05:42:02;13.40;1.00
5802;DHT22;2927;49.366;8.530;2023-03-23T05:44:27;13.40;99.90
5802;DHT22;2927;49.366;8.530;2023-03-23T05:46:53;13.40;99.90
5802;DHT22;2927;49.366;8.530;2023-03-23T05:49:18;13.40;1.00
5802;DHT22;2927;49.366;8.530;2023-03-23T05:51:45;13.40;99.90
5802;DHT22;2927;49.366;8.530;2023-03-23T05:54:11;13.40;1.00
5802;DHT22;2927;49.366;8.530;2023-03-23T05:56:37;13.40;1.00
5802;DHT22;2927;49.366;8.530;2023-03-23T05:59:03;13.40;99.90
5802;DHT22;2927;49.366;8.530;2023-03-23T06:01:28;13.40;1.00
5802;DHT22;2927;49.366;8.530;2023-03-23T06:03:54;13.40;99.90
5802;DHT22;2927;49.366;8.530;2023-03-23T06:06:26;13.30;1.00
5802;DHT22;2927;49.366;8.530;2023-03-23T06:08:52;13.30;99.90
5802;DHT22;2927;49.366;8.530;2023-03-23T06:11:18;13.30;1.00
5802;DHT22;2927;49.366;8.530;2023-03-23T06:13:44;13.30;72.00
5802;DHT22;2927;49.366;8.530;2023-03-23T06:16:09;13.30;99.90
5802;DHT22;2927;49.366;8.530;2023-03-23T06:18:35;13.30;99.90
5802;DHT22;2927;49.366;8.530;2023-03-23T06:21:03;13.30;99.90
5802;DHT22;2927;49.366;8.530;2023-03-23T06:23:29;13.40;1.00
5802;DHT22;2927;49.366;8.530;2023-03-23T06:25:58;13.50;99.90
5802;DHT22;2927;49.366;8.530;2023-03-23T06:28:24;13.50;99.90
5802;DHT22;2927;49.366;8.530;2023-03-23T06:30:50;13.60;99.90
5802;DHT22;2927;49.366;8.530;2023-03-23T06:33:16;13.60;1.00
5802;DHT22;2927;49.366;8.530;2023-03-23T06:35:42;13.70;1.00
5802;DHT22;2927;49.366;8.530;2023-03-23T06:38:08;13.70;1.00
5802;DHT22;2927;49.366;8.530;2023-03-23T06:40:34;13.70;1.00
5802;DHT22;2927;49.366;8.530;2023-03-23T06:43:02;13.70;1.00
5802;DHT22;2927;49.366;8.530;2023-03-23T06:45:29;13.80;1.00
5802;DHT22;2927;49.366;8.530;2023-03-23T06:47:54;13.80;1.00
5802;DHT22;2927;49.366;8.530;2023-03-23T06:50:20;13.80;1.00
5802;DHT22;2927;49.366;8.530;2023-03-23T06:52:49;13.80;1.00
5802;DHT22;2927;49.366;8.530;2023-03-23T06:55:17;13.90;1.00
5802;DHT22;2927;49.366;8.530;2023-03-23T06:57:43;13.90;1.00
5802;DHT22;2927;49.366;8.530;2023-03-23T07:00:11;13.90;1.00
5802;DHT22;2927;49.366;8.530;2023-03-23T07:02:42;13.90;1.00
5802;DHT22;2927;49.366;8.530;2023-03-23T07:05:09;13.90;1.00
5802;DHT22;2927;49.366;8.530;2023-03-23T07:07:36;13.90;1.00
5802;DHT22;2927;49.366;8.530;2023-03-23T07:10:03;13.80;99.90
5802;DHT22;2927;49.366;8.530;2023-03-23T07:12:28;13.90;20.10
5802;DHT22;2927;49.366;8.530;2023-03-23T07:14:54;13.80;99.90
5802;DHT22;2927;49.366;8.530;2023-03-23T07:17:20;13.80;1.00
5802;DHT22;2927;49.366;8.530;2023-03-23T07:19:46;13.90;56.70
5802;DHT22;2927;49.366;8.530;2023-03-23T07:22:11;13.90;1.00
5802;DHT22;2927;49.366;8.530;2023-03-23T07:24:37;13.90;1.00
5802;DHT22;2927;49.366;8.530;2023-03-23T07:27:03;13.90;1.00
5802;DHT22;2927;49.366;8.530;2023-03-23T07:29:29;13.90;1.00
5802;DHT22;2927;49.366;8.530;2023-03-23T07:31:55;14.00;1.00
5802;DHT22;2927;49.366;8.530;2023-03-23T07:34:21;14.00;1.00
5802;DHT22;2927;49.366;8.530;2023-03-23T07:36:46;14.00;1.00
5802;DHT22;2927;49.366;8.530;2023-03-23T07:39:12;14.00;1.00
5802;DHT22;2927;49.366;8.530;2023-03-23T07:41:38;14.00;1.00
5802;DHT22;2927;49.366;8.530;2023-03-23T07:44:04;14.10;1.00
5802;DHT22;2927;49.366;8.530;2023-03-23T07:46:31;14.10;1.00
5802;DHT22;2927;49.366;8.530;2023-03-23T07:48:57;14.10;1.00
5802;DHT22;2927;49.366;8.530;2023-03-23T07:51:23;14.00;99.90
5802;DHT22;2927;49.366;8.530;2023-03-23T07:53:48;14.00;1.00
5802;DHT22;2927;49.366;8.530;2023-03-23T07:56:15;14.00;1.00
5802;DHT22;2927;49.366;8.530;2023-03-23T07:58:44;14.00;1.00
5802;DHT22;2927;49.366;8.530;2023-03-23T08:01:10;14.00;1.00
5802;DHT22;2927;49.366;8.530;2023-03-23T08:03:36;14.00;1.00
5802;DHT22;2927;49.366;8.530;2023-03-23T08:06:03;14.10;1.00
5802;DHT22;2927;49.366;8.530;2023-03-23T08:08:29;14.20;1.00
5802;DHT22;2927;49.366;8.530;2023-03-23T08:10:55;14.30;1.00
5802;DHT22;2927;49.366;8.530;2023-03-23T08:13:21;14.30;1.00
5802;DHT22;2927;49.366;8.530;2023-03-23T08:15:47;14.40;1.00
5802;DHT22;2927;49.366;8.530;2023-03-23T08:18:12;14.40;1.00
5802;DHT22;2927;49.366;8.530;2023-03-23T08:20:38;14.40;1.00
5802;DHT22;2927;49.366;8.530;2023-03-23T08:23:05;14.40;1.00
5802;DHT22;2927;49.366;8.530;2023-03-23T08:25:31;14.40;1.00
5802;DHT22;2927;49.366;8.530;2023-03-23T08:27:58;14.40;1.00
5802;DHT22;2927;49.366;8.530;2023-03-23T08:30:24;14.40;1.00
5802;DHT22;2927;49.366;8.530;2023-03-23T08:32:51;14.40;1.00
5802;DHT22;2927;49.366;8.530;2023-03-23T08:35:18;14.30;1.00
5802;DHT22;2927;49.366;8.530;2023-03-23T08:37:45;14.30;1.00
5802;DHT22;2927;49.366;8.530;2023-03-23T08:40:13;14.30;99.90
5802;DHT22;2927;49.366;8.530;2023-03-23T08:42:41;14.30;92.20
5802;DHT22;2927;49.366;8.530;2023-03-23T08:45:10;14.20;99.90
5802;DHT22;2927;49.366;8.530;2023-03-23T08:47:36;14.20;99.90
5802;DHT22;2927;49.366;8.530;2023-03-23T08:50:03;14.20;1.00
5802;DHT22;2927;49.366;8.530;2023-03-23T08:52:29;14.30;99.90
5802;DHT22;2927;49.366;8.530;2023-03-23T08:54:55;14.30;1.00
5802;DHT22;2927;49.366;8.530;2023-03-23T08:57:23;14.40;1.00
5802;DHT22;2927;49.366;8.530;2023-03-23T08:59:48;14.50;1.00
5802;DHT22;2927;49.366;8.530;2023-03-23T09:02:14;14.50;1.00
5802;DHT22;2927;49.366;8.530;2023-03-23T09:04:40;14.50;1.00
5802;DHT22;2927;49.366;8.530;2023-03-23T09:07:09;14.60;99.90
5802;DHT22;2927;49.366;8.530;2023-03-23T09:09:34;14.50;1.00
5802;DHT22;2927;49.366;8.530;2023-03-23T09:12:00;14.50;99.90
5802;DHT22;2927;49.366;8.530;2023-03-23T09:14:26;14.50;99.90
5802;DHT22;2927;49.366;8.530;2023-03-23T09:16:52;14.50;1.00
5802;DHT22;2927;49.366;8.530;2023-03-23T09:19:17;14.50;99.90
5802;DHT22;2927;49.366;8.530;2023-03-23T09:21:43;14.70;1.00
5802;DHT22;2927;49.366;8.530;2023-03-23T09:24:10;14.70;1.00
5802;DHT22;2927;49.366;8.530;2023-03-23T09:26:36;14.80;99.90
5802;DHT22;2927;49.366;8.530;2023-03-23T09:29:02;14.80;99.90
5802;DHT22;2927;49.366;8.530;2023-03-23T09:31:28;14.80;99.90
5802;DHT22;2927;49.366;8.530;2023-03-23T09:33:54;14.90;1.00
5802;DHT22;2927;49.366;8.530;2023-03-23T09:36:22;15.00;1.00
5802;DHT22;2927;49.366;8.530;2023-03-23T09:38:48;14.90;1.00
5802;DHT22;2927;49.366;8.530;2023-03-23T09:47:25;14.90;1.00
5802;DHT22;2927;49.366;8.530;2023-03-23T09:50:24;15.00;1.00
5802;DHT22;2927;49.366;8.530;2023-03-23T09:52:55;15.10;1.00
5802;DHT22;2927;49.366;8.530;2023-03-23T09:55:21;15.10;1.00
5802;DHT22;2927;49.366;8.530;2023-03-23T10:00:34;15.50;99.90
5802;DHT22;2927;49.366;8.530;2023-03-23T10:03:15;16.00;1.00
5802;DHT22;2927;49.366;8.530;2023-03-23T10:05:45;16.20;1.00
5802;DHT22;2927;49.366;8.530;2023-03-23T10:08:14;16.50;1.00
5802;DHT22;2927;49.366;8.530;2023-03-23T10:10:57;16.70;99.90
5802;DHT22;2927;49.366;8.530;2023-03-23T10:16:53;16.80;99.90
5802;DHT22;2927;49.366;8.530;2023-03-23T10:19:33;17.10;99.90
5802;DHT22;2927;49.366;8.530;2023-03-23T10:22:10;16.90;99.90
5802;DHT22;2927;49.366;8.530;2023-03-23T10:24:51;16.90;99.90
5802;DHT22;2927;49.366;8.530;2023-03-23T10:27:26;16.90;1.00
5802;DHT22;2927;49.366;8.530;2023-03-23T10:33:09;16.40;1.00
5802;DHT22;2927;49.366;8.530;2023-03-23T10:35:42;16.20;1.00
5802;DHT22;2927;49.366;8.530;2023-03-23T10:38:16;16.20;1.00
5802;DHT22;2927;49.366;8.530;2023-03-23T10:40:52;16.30;94.50
5802;DHT22;2927;49.366;8.530;2023-03-23T10:43:19;16.40;1.00
5802;DHT22;2927;49.366;8.530;2023-03-23T10:45:50;16.40;99.90
5802;DHT22;2927;49.366;8.530;2023-03-23T10:48:27;16.30;99.90
5802;DHT22;2927;49.366;8.530;2023-03-23T10:50:56;16.20;1.00
5802;DHT22;2927;49.366;8.530;2023-03-23T10:53:30;16.20;1.00
5802;DHT22;2927;49.366;8.530;2023-03-23T10:55:57;16.20;99.90
5802;DHT22;2927;49.366;8.530;2023-03-23T10:58:27;16.20;1.00
5802;DHT22;2927;49.366;8.530;2023-03-23T11:00:57;16.00;89.00
5802;DHT22;2927;49.366;8.530;2023-03-23T11:06:05;16.20;99.90
5802;DHT22;2927;49.366;8.530;2023-03-23T11:08:38;15.90;1.00
5802;DHT22;2927;49.366;8.530;2023-03-23T11:13:46;15.90;1.00
5802;DHT22;2927;49.366;8.530;2023-03-23T11:16:23;15.90;1.00
5802;DHT22;2927;49.366;8.530;2023-03-23T11:18:49;16.10;1.00
5802;DHT22;2927;49.366;8.530;2023-03-23T11:21:15;16.20;99.90
5802;DHT22;2927;49.366;8.530;2023-03-23T11:23:43;16.20;1.00
5802;DHT22;2927;49.366;8.530;2023-03-23T11:26:20;16.30;1.00
5802;DHT22;2927;49.366;8.530;2023-03-23T11:29:09;16.30;1.00
5802;DHT22;2927;49.366;8.530;2023-03-23T11:31:42;16.10;99.90
5802;DHT22;2927;49.366;8.530;2023-03-23T11:36:47;16.30;99.90
5802;DHT22;2927;49.366;8.530;2023-03-23T11:39:31;16.40;96.50
5802;DHT22;2927;49.366;8.530;2023-03-23T11:42:01;16.30;1.00
5802;DHT22;2927;49.366;8.530;2023-03-23T11:44:35;16.40;1.00
5802;DHT22;2927;49.366;8.530;2023-03-23T11:50:00;16.40;1.00
5802;DHT22;2927;49.366;8.530;2023-03-23T11:55:17;16.30;99.90
5802;DHT22;2927;49.366;8.530;2023-03-23T11:57:44;16.10;1.00
5802;DHT22;2927;49.366;8.530;2023-03-23T12:00:21;16.10;99.90
5802;DHT22;2927;49.366;8.530;2023-03-23T12:03:27;16.10;1.00
5802;DHT22;2927;49.366;8.530;2023-03-23T12:06:05;16.00;1.00
5802;DHT22;2927;49.366;8.530;2023-03-23T12:14:07;15.80;1.00
5802;DHT22;2927;49.366;8.530;2023-03-23T12:22:36;15.80;99.90
5802;DHT22;2927;49.366;8.530;2023-03-23T12:25:33;15.50;99.90
5802;DHT22;2927;49.366;8.530;2023-03-23T12:31:20;15.70;99.90
5802;DHT22;2927;49.366;8.530;2023-03-23T12:36:55;15.60;99.90
5802;DHT22;2927;49.366;8.530;2023-03-23T12:42:34;15.70;53.80
5802;DHT22;2927;49.366;8.530;2023-03-23T12:45:18;15.60;1.00
5802;DHT22;2927;49.366;8.530;2023-03-23T12:50:37;15.60;99.90
5802;DHT22;2927;49.366;8.530;2023-03-23T12:53:18;15.50;99.90
5802;DHT22;2927;49.366;8.530;2023-03-23T12:55:49;15.60;99.90
5802;DHT22;2927;49.366;8.530;2023-03-23T12:58:26;15.50;99.90
5802;DHT22;2927;49.366;8.530;2023-03-23T13:01:05;15.60;99.90
5802;DHT22;2927;49.366;8.530;2023-03-23T13:06:31;15.50;1.00
5802;DHT22;2927;49.366;8.530;2023-03-23T13:09:09;15.40;99.90
5802;DHT22;2927;49.366;8.530;2023-03-23T13:11:38;15.50;99.90
5802;DHT22;2927;49.366;8.530;2023-03-23T13:20:34;15.50;1.00
5802;DHT22;2927;49.366;8.530;2023-03-23T13:23:04;15.50;95.40
5802;DHT22;2927;49.366;8.530;2023-03-23T13:28:04;15.40;99.90
5802;DHT22;2927;49.366;8.530;2023-03-23T13:30:30;15.40;99.90
5802;DHT22;2927;49.366;8.530;2023-03-23T13:33:04;15.30;99.90
5802;DHT22;2927;49.366;8.530;2023-03-23T13:35:35;15.30;99.90
5802;DHT22;2927;49.366;8.530;2023-03-23T13:38:18;15.20;99.90
5802;DHT22;2927;49.366;8.530;2023-03-23T13:40:45;15.10;1.00
5802;DHT22;2927;49.366;8.530;2023-03-23T13:43:11;15.10;1.00
5802;DHT22;2927;49.366;8.530;2023-03-23T13:45:44;15.00;1.00
5802;DHT22;2927;49.366;8.530;2023-03-23T13:55:50;14.80;1.00
5802;DHT22;2927;49.366;8.530;2023-03-23T13:58:25;14.80;1.00
5802;DHT22;2927;49.366;8.530;2023-03-23T14:03:38;14.70;1.00
5802;DHT22;2927;49.366;8.530;2023-03-23T14:06:13;14.70;1.00
5802;DHT22;2927;49.366;8.530;2023-03-23T14:08:43;14.70;1.00
5802;DHT22;2927;49.366;8.530;2023-03-23T14:11:24;14.70;1.00
5802;DHT22;2927;49.366;8.530;2023-03-23T14:14:06;14.70;1.00
5802;DHT22;2927;49.366;8.530;2023-03-23T14:19:02;14.70;1.00
5802;DHT22;2927;49.366;8.530;2023-03-23T14:21:35;14.70;1.00
5802;DHT22;2927;49.366;8.530;2023-03-23T14:24:15;14.70;1.00
5802;DHT22;2927;49.366;8.530;2023-03-23T14:26:41;14.70;15.20
5802;DHT22;2927;49.366;8.530;2023-03-23T14:29:10;14.70;99.90
5802;DHT22;2927;49.366;8.530;2023-03-23T14:31:36;14.60;99.90
5802;DHT22;2927;49.366;8.530;2023-03-23T14:34:16;14.70;99.90
5802;DHT22;2927;49.366;8.530;2023-03-23T14:36:43;14.70;99.90
5802;DHT22;2927;49.366;8.530;2023-03-23T14:39:18;14.70;99.90
5802;DHT22;2927;49.366;8.530;2023-03-23T14:41:45;14.70;99.90
5802;DHT22;2927;49.366;8.530;2023-03-23T14:44:15;14.80;99.90
5802;DHT22;2927;49.366;8.530;2023-03-23T14:46:43;14.80;1.00
5802;DHT22;2927;49.366;8.530;2023-03-23T14:49:15;14.70;1.00
5802;DHT22;2927;49.366;8.530;2023-03-23T14:51:54;14.70;99.90
5802;DHT22;2927;49.366;8.530;2023-03-23T14:54:26;14.70;99.90
5802;DHT22;2927;49.366;8.530;2023-03-23T14:56:52;14.70;1.00
5802;DHT22;2927;49.366;8.530;2023-03-23T14:59:18;14.70;1.00
5802;DHT22;2927;49.366;8.530;2023-03-23T15:01:46;14.60;1.00
5802;DHT22;2927;49.366;8.530;2023-03-23T15:04:18;14.70;1.00
5802;DHT22;2927;49.366;8.530;2023-03-23T15:06:48;14.80;1.00
5802;DHT22;2927;49.366;8.530;2023-03-23T15:09:19;14.80;1.00
5802;DHT22;2927;49.366;8.530;2023-03-23T15:11:52;14.90;99.90
5802;DHT22;2927;49.366;8.530;2023-03-23T15:14:30;14.90;1.00
5802;DHT22;2927;49.366;8.530;2023-03-23T15:16:59;14.90;1.00
5802;DHT22;2927;49.366;8.530;2023-03-23T15:19:34;15.00;1.00
5802;DHT22;2927;49.366;8.530;2023-03-23T15:22:31;15.00;1.00
5802;DHT22;2927;49.366;8.530;2023-03-23T15:25:19;14.90;1.00
5802;DHT22;2927;49.366;8.530;2023-03-23T15:27:53;14.90;1.00
5802;DHT22;2927;49.366;8.530;2023-03-23T15:32:52;14.90;99.90
5802;DHT22;2927;49.366;8.530;2023-03-23T15:35:23;14.80;99.90
5802;DHT22;2927;49.366;8.530;2023-03-23T15:37:53;14.80;99.90
5802;DHT22;2927;49.366;8.530;2023-03-23T15:40:23;14.80;1.00
5802;DHT22;2927;49.366;8.530;2023-03-23T15:42:50;14.90;99.90
5802;DHT22;2927;49.366;8.530;2023-03-23T15:45:30;14.90;99.90
5802;DHT22;2927;49.366;8.530;2023-03-23T15:48:04;14.90;99.90
5802;DHT22;2927;49.366;8.530;2023-03-23T15:52:56;14.90;1.00
5802;DHT22;2927;49.366;8.530;2023-03-23T15:55:23;15.00;1.00
5802;DHT22;2927;49.366;8.530;2023-03-23T15:57:50;15.00;1.00
5802;DHT22;2927;49.366;8.530;2023-03-23T16:00:17;15.10;1.00
5802;DHT22;2927;49.366;8.530;2023-03-23T16:02:48;15.20;99.90
5802;DHT22;2927;49.366;8.530;2023-03-23T16:05:14;15.20;99.90
5802;DHT22;2927;49.366;8.530;2023-03-23T16:07:40;15.20;99.90
5802;DHT22;2927;49.366;8.530;2023-03-23T16:10:07;15.20;99.90
5802;DHT22;2927;49.366;8.530;2023-03-23T16:12:38;15.20;99.90
5802;DHT22;2927;49.366;8.530;2023-03-23T16:15:05;15.30;21.90
5802;DHT22;2927;49.366;8.530;2023-03-23T16:17:30;15.30;1.00
5802;DHT22;2927;49.366;8.530;2023-03-23T16:19:57;15.30;1.00
5802;DHT22;2927;49.366;8.530;2023-03-23T16:22:23;15.30;99.90
5802;DHT22;2927;49.366;8.530;2023-03-23T16:24:48;15.30;99.90
5802;DHT22;2927;49.366;8.530;2023-03-23T16:27:14;15.30;99.90
5802;DHT22;2927;49.366;8.530;2023-03-23T16:29:39;15.30;99.90
5802;DHT22;2927;49.366;8.530;2023-03-23T16:32:05;15.30;99.90
5802;DHT22;2927;49.366;8.530;2023-03-23T16:34:31;15.30;99.90
5802;DHT22;2927;49.366;8.530;2023-03-23T16:36:58;15.30;99.90
5802;DHT22;2927;49.366;8.530;2023-03-23T16:39:23;15.30;1.00
5802;DHT22;2927;49.366;8.530;2023-03-23T16:41:49;15.30;1.00
5802;DHT22;2927;49.366;8.530;2023-03-23T16:44:14;15.20;1.00
5802;DHT22;2927;49.366;8.530;2023-03-23T16:46:40;15.20;1.00
5802;DHT22;2927;49.366;8.530;2023-03-23T16:49:05;15.20;1.00
5802;DHT22;2927;49.366;8.530;2023-03-23T16:51:31;15.10;1.00
5802;DHT22;2927;49.366;8.530;2023-03-23T16:53:57;15.10;1.00
5802;DHT22;2927;49.366;8.530;2023-03-23T16:56:22;15.10;1.00
5802;DHT22;2927;49.366;8.530;2023-03-23T16:58:48;15.10;1.00
5802;DHT22;2927;49.366;8.530;2023-03-23T17:01:13;15.00;1.00
5802;DHT22;2927;49.366;8.530;2023-03-23T17:03:40;15.00;99.90
5802;DHT22;2927;49.366;8.530;2023-03-23T17:06:07;15.00;1.00
5802;DHT22;2927;49.366;8.530;2023-03-23T17:08:32;15.00;1.00
5802;DHT22;2927;49.366;8.530;2023-03-23T17:10:58;15.00;1.00
5802;DHT22;2927;49.366;8.530;2023-03-23T17:13:24;14.90;1.00
5802;DHT22;2927;49.366;8.530;2023-03-23T17:15:53;14.90;99.90
5802;DHT22;2927;49.366;8.530;2023-03-23T17:18:19;14.90;84.10
5802;DHT22;2927;49.366;8.530;2023-03-23T17:20:45;14.80;99.90
5802;DHT22;2927;49.366;8.530;2023-03-23T17:23:10;14.80;99.90
5802;DHT22;2927;49.366;8.530;2023-03-23T17:25:36;14.70;99.90
5802;DHT22;2927;49.366;8.530;2023-03-23T17:28:02;14.70;1.00
5802;DHT22;2927;49.366;8.530;2023-03-23T17:30:28;14.60;1.00
5802;DHT22;2927;49.366;8.530;2023-03-23T17:32:53;14.60;1.00
5802;DHT22;2927;49.366;8.530;2023-03-23T17:35:19;14.60;1.00
5802;DHT22;2927;49.366;8.530;2023-03-23T17:37:45;14.60;1.00
5802;DHT22;2927;49.366;8.530;2023-03-23T17:40:10;14.60;1.00
5802;DHT22;2927;49.366;8.530;2023-03-23T17:42:37;14.50;1.00
5802;DHT22;2927;49.366;8.530;2023-03-23T17:45:05;14.50;1.00
5802;DHT22;2927;49.366;8.530;2023-03-23T17:47:32;14.50;71.10
5802;DHT22;2927;49.366;8.530;2023-03-23T17:49:58;14.40;99.90
5802;DHT22;2927;49.366;8.530;2023-03-23T17:52:23;14.40;99.90
5802;DHT22;2927;49.366;8.530;2023-03-23T17:54:49;14.40;1.00
5802;DHT22;2927;49.366;8.530;2023-03-23T17:57:15;14.40;99.90
5802;DHT22;2927;49.366;8.530;2023-03-23T17:59:41;14.40;1.00